Time;durP1;ratioP1;P1;durP2;ratioP2;P2;SDS_P1;SDS_P2;PMS_P1;PMS_P2;Temp;Humidity;BMP_temperature;BMP_pressure;BME280_temperature;BME280_humidity;BME280_pressure;Samples;Min_cycle;Max_cycle;Signal;HPM_P1;HPM_P2
2023/01/04 00:01:43;;;;;;;49.40;29.27;;;;;;;5.67;94.23;96614.91;1786531;80;21027;-68
2023/01/04 00:04:10;;;;;;;48.43;28.63;;;;;;;5.70;93.92;96617.17;1795220;80;21022;-68
2023/01/04 00:06:37;;;;;;;48.23;28.93;;;;;;;5.76;94.40;96612.02;1795588;80;21535;-68
2023/01/04 00:09:03;;;;;;;44.70;26.73;;;;;;;5.79;94.23;96617.73;1795270;80;21082;-68
2023/01/04 00:11:30;;;;;;;52.90;30.23;;;;;;;5.80;95.06;96616.89;1795413;80;20994;-68
2023/01/04 00:13:58;;;;;;;53.17;29.80;;;;;;;5.82;95.81;96622.61;1795598;80;21010;-68
2023/01/04 00:16:27;;;;;;;44.03;26.53;;;;;;;5.82;95.49;96616.06;1795697;80;21031;-68
2023/01/04 00:18:55;;;;;;;48.87;29.27;;;;;;;5.85;95.10;96620.03;1795560;80;20967;-68
2023/01/04 00:21:28;;;;;;;49.87;28.47;;;;;;;5.86;94.94;96624.84;1795547;80;20971;-68
2023/01/04 00:23:58;;;;;;;49.18;28.85;;;;;;;5.86;95.01;96625.71;1795688;80;20967;-68
2023/01/04 00:26:30;;;;;;;47.77;27.87;;;;;;;5.86;96.17;96623.52;1795506;80;21003;-68
2023/01/04 00:29:02;;;;;;;49.20;28.07;;;;;;;5.89;95.55;96631.86;1795402;80;21063;-68
2023/01/04 00:31:29;;;;;;;46.73;28.30;;;;;;;5.88;96.19;96625.75;1795453;80;21493;-68
2023/01/04 00:33:59;;;;;;;48.17;27.67;;;;;;;5.88;96.73;96641.47;1795416;80;20999;-68
2023/01/04 00:36:27;;;;;;;47.77;26.13;;;;;;;5.88;97.33;96635.34;1795498;80;21038;-68
2023/01/04 00:39:06;;;;;;;48.63;28.10;;;;;;;5.87;97.11;96637.06;1795459;80;21010;-68
2023/01/04 00:41:36;;;;;;;45.43;26.43;;;;;;;5.88;96.61;96639.28;1795614;80;21070;-68
2023/01/04 00:44:06;;;;;;;43.87;27.30;;;;;;;5.91;96.03;96639.32;1764696;80;21054;-68
2023/01/04 00:46:33;;;;;;;46.27;25.70;;;;;;;5.92;96.08;96644.59;1795395;80;21493;-68
2023/01/04 00:49:01;;;;;;;44.40;26.17;;;;;;;5.93;95.76;96639.80;1795474;80;21029;-68
2023/01/04 00:51:30;;;;;;;41.07;26.03;;;;;;;5.95;95.67;96645.11;1795548;80;21067;-68
2023/01/04 00:54:00;;;;;;;39.67;24.87;;;;;;;5.98;95.51;96645.16;1795413;80;21078;-68
2023/01/04 00:56:31;;;;;;;40.87;25.50;;;;;;;5.99;95.39;96647.77;1795329;80;21077;-68
2023/01/04 00:59:01;;;;;;;45.47;27.53;;;;;;;5.98;95.26;96651.27;1759386;80;21066;-68
2023/01/04 01:01:29;;;;;;;46.07;27.10;;;;;;;6.00;95.39;96652.61;1795081;80;21085;-68
2023/01/04 01:03:59;;;;;;;41.10;24.27;;;;;;;6.02;95.45;96659.64;1795547;80;21010;-68
2023/01/04 01:06:29;;;;;;;41.27;24.23;;;;;;;5.98;95.31;96664.36;1795594;80;20991;-68
2023/01/04 01:08:57;;;;;;;39.07;25.47;;;;;;;5.99;95.30;96659.56;1795414;80;20979;-68
2023/01/04 01:11:23;;;;;;;40.10;25.23;;;;;;;5.98;95.34;96662.18;1795480;80;20979;-68
2023/01/04 01:13:50;;;;;;;39.07;24.70;;;;;;;5.99;95.21;96656.95;1795446;80;21481;-68
2023/01/04 01:16:21;;;;;;;41.83;24.50;;;;;;;6.00;95.28;96659.16;1789952;80;21085;-68
2023/01/04 01:18:48;;;;;;;38.50;24.23;;;;;;;6.01;95.52;96655.67;1795580;80;20995;-68
2023/01/04 01:21:18;;;;;;;40.17;23.67;;;;;;;6.00;95.81;96657.86;1795530;80;20991;-68
2023/01/04 01:23:47;;;;;;;37.07;23.37;;;;;;;5.98;95.69;96658.25;1795597;80;21006;-68
2023/01/04 01:26:18;;;;;;;34.60;22.20;;;;;;;5.97;95.84;96658.69;1795471;80;21015;-68
2023/01/04 01:28:45;;;;;;;39.27;23.47;;;;;;;5.93;96.51;96655.95;1795365;80;21002;-68
2023/01/04 01:31:19;;;;;;;32.80;21.70;;;;;;;5.92;96.20;96659.41;1795199;80;21497;-68
2023/01/04 01:33:47;;;;;;;;;;;;;;;5.90;96.15;96653.29;1798166;80;20967;-68
2023/01/04 01:36:15;;;;;;;30.57;20.00;;;;;;;5.89;96.05;96655.00;1794962;80;20096;-68
2023/01/04 01:38:43;;;;;;;31.33;20.70;;;;;;;5.88;96.00;96658.92;1795177;80;21018;-68
2023/01/04 01:41:21;;;;;;;30.87;20.03;;;;;;;5.86;95.86;96654.52;1795171;80;21122;-68
2023/01/04 01:43:58;;;;;;;28.43;18.27;;;;;;;5.85;96.28;96657.14;1791204;80;21062;-68
2023/01/04 01:46:48;;;;;;;28.07;18.07;;;;;;;5.83;96.42;96649.23;1795439;80;21546;-68
2023/01/04 01:49:32;;;;;;;28.73;17.67;;;;;;;5.81;96.25;96650.95;1795507;80;21508;-68
2023/01/04 01:52:10;;;;;;;27.53;17.77;;;;;;;5.80;96.11;96650.50;1794618;80;20983;-68
2023/01/04 01:54:47;;;;;;;27.27;17.53;;;;;;;5.79;95.97;96660.51;1795552;80;21018;-68
2023/01/04 01:57:18;;;;;;;25.93;17.17;;;;;;;5.76;96.43;96650.42;1795449;80;21037;-68
2023/01/04 01:59:48;;;;;;;24.10;16.87;;;;;;;5.77;96.51;96649.55;1795338;80;20991;-68
2023/01/04 02:02:14;;;;;;;26.37;17.40;;;;;;;5.76;96.40;96650.42;1795298;80;21074;-68
2023/01/04 02:04:45;;;;;;;25.57;16.60;;;;;;;5.76;96.44;96653.04;1795188;80;21492;-68
2023/01/04 02:07:17;;;;;;;23.17;15.50;;;;;;;5.74;96.53;96641.22;1764439;80;21551;-68
2023/01/04 02:09:45;;;;;;;20.43;14.83;;;;;;;5.74;96.31;96641.22;1795358;80;21516;-68
2023/01/04 02:12:13;;;;;;;22.30;14.50;;;;;;;5.74;96.39;96642.96;1795502;80;20979;-68
2023/01/04 02:14:44;;;;;;;21.33;14.47;;;;;;;5.73;96.31;96647.33;1795511;80;21465;-68
2023/01/04 02:17:28;;;;;;;19.47;13.93;;;;;;;5.73;96.27;96649.06;1795473;80;20991;-68
2023/01/04 02:20:18;;;;;;;17.43;13.10;;;;;;;5.72;96.48;96648.59;1795308;80;21058;-68
2023/01/04 02:23:20;;;;;;;16.97;12.43;;;;;;;5.71;96.52;96649.46;1795561;80;21520;-68
2023/01/04 02:26:28;;;;;;;18.67;12.00;;;;;;;5.68;96.79;96649.41;1795441;80;21528;-68
2023/01/04 02:29:12;;;;;;;14.87;10.67;;;;;;;5.62;96.84;96653.69;1795428;80;20951;-68
2023/01/04 02:31:52;;;;;;;11.77;8.90;;;;;;;5.60;97.04;96655.39;1795447;80;21584;-68
2023/01/04 02:35:01;;;;;;;10.80;8.37;;;;;;;5.57;97.04;96652.73;1795579;80;21465;-68
2023/01/04 02:37:50;;;;;;;8.30;7.07;;;;;;;5.56;96.99;96654.87;1795068;80;21046;-68
2023/01/04 02:40:47;;;;;;;8.90;7.13;;;;;;;5.54;97.03;96658.31;1795240;80;21504;-68
2023/01/04 02:46:28;;;;;;;7.80;6.40;;;;;;;5.48;97.24;96662.15;1769129;80;21037;-68
2023/01/04 02:51:46;;;;;;;5.90;5.30;;;;;;;5.46;96.85;96654.69;1795577;80;21401;-68
2023/01/04 02:54:20;;;;;;;5.87;5.27;;;;;;;5.45;96.85;96656.43;1794989;80;21094;-67
2023/01/04 02:57:11;;;;;;;7.73;4.97;;;;;;;5.45;96.83;96656.87;1764515;80;21033;-68
2023/01/04 03:00:00;;;;;;;5.33;4.83;;;;;;;5.45;96.88;96652.94;1793544;80;21018;-68
2023/01/04 03:06:14;;;;;;;5.77;5.00;;;;;;;5.38;97.25;96650.19;1795671;80;21102;-67
2023/01/04 03:08:52;;;;;;;5.13;4.63;;;;;;;5.35;97.46;96650.14;1795334;80;20987;-68
2023/01/04 03:14:21;;;;;;;4.83;4.00;;;;;;;5.35;97.17;96651.88;1795009;80;21055;-68
2023/01/04 03:16:49;;;;;;;;;;;;;;;5.33;96.97;96645.30;1798065;80;21058;-68
2023/01/04 03:35:21;;;;;;;4.40;3.97;;;;;;;5.32;97.13;96649.22;1795307;80;21109;-68
2023/01/04 03:35:58;;;;;;;6.25;5.20;;;;;;;5.31;96.86;96653.98;1795537;80;21093;-68
2023/01/04 03:50:25;;;;;;;8.85;6.65;;;;;;;5.31;96.76;96636.53;1795151;80;20979;-68
2023/01/04 03:52:54;;;;;;;10.77;6.97;;;;;;;5.37;96.96;96639.72;1794424;80;21025;-68
2023/01/04 03:55:24;;;;;;;8.10;6.20;;;;;;;5.41;97.08;96645.44;1795375;80;21059;-68
2023/01/04 03:57:52;;;;;;;6.63;5.43;;;;;;;5.44;97.04;96645.48;1795397;80;21010;-68
2023/01/04 04:00:19;;;;;;;8.90;6.27;;;;;;;5.43;96.92;96651.59;1795402;80;21070;-68
2023/01/04 04:02:48;;;;;;;8.27;6.67;;;;;;;5.42;96.88;96651.15;1795343;80;20999;-68
2023/01/04 04:10:57;;;;;;;9.53;7.87;;;;;;;5.35;96.51;96657.99;1795453;80;21038;-68
2023/01/04 04:13:24;;;;;;;11.50;8.70;;;;;;;5.29;96.76;96660.51;1794898;80;21001;-67
2023/01/04 04:15:52;;;;;;;11.60;8.27;;;;;;;5.24;96.84;96659.54;1795250;80;20999;-68
2023/01/04 04:18:19;;;;;;;10.07;7.17;;;;;;;5.23;96.74;96661.68;1795295;80;20998;-68
2023/01/04 04:20:46;;;;;;;7.53;5.97;;;;;;;5.22;96.58;96663.86;1795094;80;21066;-68
2023/01/04 04:23:12;;;;;;;9.07;6.23;;;;;;;5.17;96.21;96661.14;1795486;80;20998;-68
2023/01/04 04:25:39;;;;;;;8.43;6.40;;;;;;;5.20;96.24;96669.48;1795130;80;21078;-68
2023/01/04 04:28:05;;;;;;;8.63;6.83;;;;;;;5.19;96.16;96672.53;1795624;80;21038;-68
2023/01/04 04:30:31;;;;;;;8.73;6.97;;;;;;;5.18;95.98;96674.67;1795092;80;21094;-68
2023/01/04 04:32:58;;;;;;;8.33;6.63;;;;;;;5.17;95.98;96678.15;1795481;80;21481;-68
2023/01/04 04:35:24;;;;;;;8.00;5.77;;;;;;;5.14;95.87;96679.80;1795660;80;20990;-68
2023/01/04 04:37:51;;;;;;;9.80;6.97;;;;;;;5.13;95.85;96684.59;1795348;80;21006;-68
2023/01/04 04:41:37;;;;;;;10.33;7.80;;;;;;;5.11;95.86;96687.16;1795455;80;21033;-68
2023/01/04 04:42:45;;;;;;;9.37;7.20;;;;;;;5.11;95.86;96688.91;1790509;80;21519;-68
2023/01/04 04:45:12;;;;;;;10.70;8.17;;;;;;;5.09;95.92;96694.13;1795322;80;20967;-68
2023/01/04 04:47:38;;;;;;;11.87;7.30;;;;;;;5.10;95.92;96701.11;1795382;80;21006;-68
2023/01/04 04:50:06;;;;;;;9.53;7.27;;;;;;;5.11;95.80;96700.68;1795599;80;20983;-68
2023/01/04 04:52:33;;;;;;;11.43;7.80;;;;;;;5.07;95.78;96704.11;1795425;80;21425;-68
2023/01/04 04:54:59;;;;;;;12.17;8.40;;;;;;;5.06;95.67;96702.32;1795433;80;21011;-68
2023/01/04 04:57:25;;;;;;;10.53;8.00;;;;;;;5.05;95.57;96700.13;1795303;80;21557;-68
2023/01/04 04:59:52;;;;;;;10.77;7.27;;;;;;;5.04;95.52;96706.63;1795259;80;21002;-68
2023/01/04 05:02:18;;;;;;;11.03;8.30;;;;;;;5.03;95.37;96707.50;1795610;80;20970;-68
2023/01/04 05:04:45;;;;;;;10.77;7.53;;;;;;;4.98;95.56;96697.81;1793614;80;21480;-68
2023/01/04 05:07:11;;;;;;;12.33;7.97;;;;;;;4.98;95.63;96691.70;1795380;80;21011;-68
2023/01/04 05:09:38;;;;;;;11.73;8.63;;;;;;;4.97;95.54;96707.83;1795632;80;21500;-68
2023/01/04 05:14:50;;;;;;;9.37;7.17;;;;;;;4.96;95.53;96713.92;1794990;80;21090;-68
2023/01/04 05:17:16;;;;;;;9.77;7.43;;;;;;;4.96;95.47;96713.02;1795447;80;21042;-68
2023/01/04 05:19:43;;;;;;;12.37;8.63;;;;;;;4.97;95.33;96719.59;1795406;80;20994;-68
2023/01/04 05:22:10;;;;;;;11.87;7.70;;;;;;;4.95;95.49;96717.80;1795418;80;21054;-68
2023/01/04 05:24:36;;;;;;;10.87;7.80;;;;;;;4.97;95.54;96721.34;1795634;80;21464;-68
2023/01/04 05:27:03;;;;;;;11.80;8.63;;;;;;;4.97;95.48;96716.98;1795310;80;22401;-68
2023/01/04 05:32:14;;;;;;;12.83;9.33;;;;;;;4.98;95.21;96716.12;1795643;80;21504;-68
2023/01/04 05:34:41;;;;;;;12.10;8.80;;;;;;;4.96;95.13;96719.16;1795469;80;21006;-68
2023/01/04 05:37:08;;;;;;;11.80;8.03;;;;;;;4.99;95.48;96722.25;1795153;80;21592;-68
2023/01/04 05:39:34;;;;;;;11.67;9.10;;;;;;;5.02;95.52;96727.98;1795739;80;20998;-68
2023/01/04 05:44:46;;;;;;;16.60;9.73;;;;;;;4.99;95.17;96732.72;1795442;80;20979;-68
2023/01/04 05:47:13;;;;;;;16.30;13.53;;;;;;;5.02;95.54;96743.24;1795414;80;21026;-68
2023/01/04 05:49:40;;;;;;;14.70;11.10;;;;;;;5.05;95.59;96743.30;1794665;80;21061;-68
2023/01/04 05:52:06;;;;;;;12.70;7.90;;;;;;;5.06;95.46;96734.59;1795739;80;20991;-68
2023/01/04 05:54:33;;;;;;;14.90;9.37;;;;;;;5.08;95.62;96735.51;1795418;80;21006;-68
2023/01/04 05:57:00;;;;;;;11.90;8.87;;;;;;;5.08;95.52;96733.33;1795412;80;21509;-68
2023/01/04 05:59:26;;;;;;;17.57;12.80;;;;;;;5.12;95.67;96733.42;1795373;80;20959;-68
2023/01/04 06:01:52;;;;;;;17.50;13.97;;;;;;;5.12;95.33;96736.47;1795332;80;21079;-68
2023/01/04 06:04:19;;;;;;;72.80;49.37;;;;;;;5.10;95.30;96730.32;1795298;80;21011;-68
2023/01/04 06:06:47;;;;;;;17.13;10.03;;;;;;;5.08;95.22;96721.12;1795511;80;21054;-68
2023/01/04 06:09:14;;;;;;;11.43;8.13;;;;;;;5.09;95.26;96720.29;1795106;80;21095;-68
2023/01/04 06:11:41;;;;;;;15.23;9.93;;;;;;;5.12;95.55;96731.24;1795627;80;20971;-68
2023/01/04 06:14:07;;;;;;;16.80;9.87;;;;;;;5.09;94.99;96732.46;1795753;80;20994;-68
2023/01/04 06:16:34;;;;;;;9.77;7.70;;;;;;;5.06;95.07;96742.87;1795315;80;21011;-68
2023/01/04 06:19:01;;;;;;;9.47;7.60;;;;;;;5.06;94.88;96744.17;1795628;80;20970;-68
2023/01/04 06:21:28;;;;;;;10.37;7.87;;;;;;;5.06;95.25;96750.28;1795474;80;21541;-68
2023/01/04 06:23:54;;;;;;;9.07;6.80;;;;;;;5.03;94.74;96751.53;1795702;80;21070;-68
2023/01/04 06:26:21;;;;;;;10.87;7.43;;;;;;;4.97;94.45;96750.11;1795442;80;21062;-67
2023/01/04 06:28:47;;;;;;;9.07;6.60;;;;;;;4.93;94.43;96753.06;1795538;80;21002;-68
2023/01/04 06:31:14;;;;;;;11.20;7.43;;;;;;;4.92;94.81;96750.43;1794779;80;21129;-68
2023/01/04 06:33:40;;;;;;;12.17;8.47;;;;;;;4.95;95.03;96746.14;1795556;80;20990;-68
2023/01/04 06:36:07;;;;;;;16.37;10.70;;;;;;;4.98;95.23;96754.05;1795514;80;21034;-68
2023/01/04 06:38:34;;;;;;;15.20;10.37;;;;;;;5.02;95.34;96749.78;1795416;80;20999;-68
2023/01/04 06:41:00;;;;;;;15.90;10.13;;;;;;;5.04;95.48;96745.47;1795505;80;21499;-68
2023/01/04 06:43:27;;;;;;;15.57;10.20;;;;;;;5.04;94.89;96748.48;1795749;80;21002;-68
2023/01/04 06:45:53;;;;;;;16.67;12.20;;;;;;;4.98;94.61;96750.55;1794842;80;21500;-68
2023/01/04 06:48:20;;;;;;;16.30;12.00;;;;;;;4.97;94.75;96755.34;1795118;80;21548;-67
2023/01/04 06:50:47;;;;;;;18.77;12.77;;;;;;;4.98;94.93;96759.27;1795366;80;21050;-68
2023/01/04 06:53:13;;;;;;;18.93;12.83;;;;;;;5.01;94.98;96754.97;1795247;80;21539;-68
2023/01/04 06:55:40;;;;;;;19.27;12.87;;;;;;;4.97;94.62;96756.64;1795124;80;21015;-67
2023/01/04 06:58:06;;;;;;;21.87;14.77;;;;;;;4.98;94.99;96759.27;1795401;80;20935;-67
2023/01/04 07:00:33;;;;;;;14.57;10.73;;;;;;;5.00;94.91;96760.63;1795385;80;21553;-68
2023/01/04 07:02:59;;;;;;;167.93;98.17;;;;;;;4.97;94.56;96750.98;1795482;80;21030;-68
2023/01/04 07:05:26;;;;;;;36.93;20.63;;;;;;;4.94;94.39;96766.62;1789715;80;21091;-68
2023/01/04 07:07:52;;;;;;;22.33;15.87;;;;;;;4.96;94.92;96767.54;1787314;80;21011;-68
2023/01/04 07:10:19;;;;;;;20.47;14.90;;;;;;;4.98;94.83;96761.02;1787178;80;20959;-68
2023/01/04 07:12:46;;;;;;;19.20;14.10;;;;;;;4.99;94.76;96767.59;1786925;80;21441;-68
2023/01/04 07:15:12;;;;;;;22.50;15.00;;;;;;;5.01;94.96;96770.22;1786883;80;21071;-68
2023/01/04 07:17:39;;;;;;;28.10;18.17;;;;;;;5.04;95.08;96769.41;1786807;80;21067;-68
2023/01/04 07:20:07;;;;;;;27.27;18.27;;;;;;;5.06;95.16;96769.90;1787269;80;20979;-68
2023/01/04 07:22:34;;;;;;;28.23;18.37;;;;;;;5.08;94.97;96773.87;1787108;80;21071;-67
2023/01/04 07:25:01;;;;;;;29.87;19.50;;;;;;;5.11;94.97;96776.11;1787357;80;20979;-68
2023/01/04 07:27:27;;;;;;;22.87;17.10;;;;;;;5.17;95.32;96778.00;1786453;80;21149;-68
2023/01/04 07:29:54;;;;;;;26.90;19.00;;;;;;;5.18;95.04;96779.33;1786638;80;20975;-68
2023/01/04 07:32:21;;;;;;;26.20;18.40;;;;;;;5.19;94.95;96778.49;1786844;80;21082;-67
2023/01/04 07:34:47;;;;;;;24.17;17.13;;;;;;;5.24;95.21;96775.98;1787081;80;21038;-68
2023/01/04 07:37:14;;;;;;;22.47;15.97;;;;;;;5.29;95.24;96779.97;1787035;80;21003;-68
2023/01/04 07:39:42;;;;;;;22.57;17.43;;;;;;;5.29;94.80;96781.28;1787050;80;21003;-68
2023/01/04 07:42:10;;;;;;;18.67;13.93;;;;;;;5.31;94.85;96790.05;1787052;80;21014;-67
2023/01/04 07:44:37;;;;;;;19.67;15.37;;;;;;;5.33;94.90;96786.62;1787071;80;20971;-68
2023/01/04 07:47:04;;;;;;;17.27;13.47;;;;;;;5.37;94.84;96791.52;1786512;80;21015;-68
2023/01/04 07:49:31;;;;;;;18.77;13.43;;;;;;;5.41;94.91;96785.47;1787026;80;21070;-68
2023/01/04 07:51:58;;;;;;;15.93;10.77;;;;;;;5.45;94.96;96779.45;1787124;80;21007;-68
2023/01/04 07:54:25;;;;;;;17.83;12.70;;;;;;;5.49;94.70;96777.77;1786837;80;21089;-67
2023/01/04 07:56:53;;;;;;;17.30;12.60;;;;;;;5.50;94.49;96779.13;1786880;80;21106;-68
2023/01/04 07:59:20;;;;;;;22.93;17.17;;;;;;;5.53;94.22;96782.23;1786751;80;21019;-68
2023/01/04 08:01:49;;;;;;;23.03;15.53;;;;;;;5.53;94.21;96780.92;1786646;80;21075;-68
2023/01/04 08:04:17;;;;;;;21.40;15.60;;;;;;;5.53;94.27;96773.06;1787390;80;21480;-68
2023/01/04 08:06:45;;;;;;;20.27;14.47;;;;;;;5.55;94.37;96778.78;1795182;80;21102;-68
2023/01/04 08:09:12;;;;;;;20.40;13.97;;;;;;;5.53;94.34;96778.30;1795128;80;20979;-68
2023/01/04 08:11:39;;;;;;;18.67;13.67;;;;;;;5.52;94.20;96780.05;1795802;80;20979;-68
2023/01/04 08:14:05;;;;;;;19.80;13.17;;;;;;;5.55;94.58;96780.53;1795513;80;21524;-68
2023/01/04 08:16:36;;;;;;;17.50;12.67;;;;;;;5.58;94.64;96785.81;1795438;80;21461;-68
2023/01/04 08:19:16;;;;;;;20.93;13.97;;;;;;;5.57;94.52;96781.45;1795576;80;21006;-68
2023/01/04 08:21:44;;;;;;;20.33;14.20;;;;;;;5.58;94.51;96788.00;1795399;80;21437;-68
2023/01/04 08:24:13;;;;;;;23.03;15.27;;;;;;;5.55;94.37;96785.77;1795450;80;21013;-68
2023/01/04 08:26:40;;;;;;;18.33;13.57;;;;;;;5.58;94.78;96786.70;1795592;80;21038;-68
2023/01/04 08:29:06;;;;;;;19.03;13.00;;;;;;;5.64;94.94;96790.77;1795448;80;21011;-68
2023/01/04 08:31:34;;;;;;;16.67;11.40;;;;;;;5.69;94.94;96793.88;1795061;80;21011;-68
2023/01/04 08:34:04;;;;;;;13.57;10.47;;;;;;;5.71;94.63;96791.74;1795482;80;21536;-68
2023/01/04 08:36:35;;;;;;;14.77;10.37;;;;;;;5.78;94.68;96788.83;1795306;80;21089;-67
2023/01/04 08:39:05;;;;;;;14.90;10.23;;;;;;;5.85;94.71;96782.86;1795573;80;21010;-68
2023/01/04 08:41:49;;;;;;;13.53;9.73;;;;;;;5.95;94.66;96782.20;1795528;80;21006;-68
2023/01/04 08:44:03;;;;;;;17.87;12.30;;;;;;;5.93;93.80;96769.47;1792308;80;20999;-68
2023/01/04 08:46:29;;;;;;;16.43;12.30;;;;;;;5.95;93.86;96768.23;1795680;80;20991;-68
2023/01/04 08:48:56;;;;;;;17.17;11.87;;;;;;;6.00;93.97;96769.20;1795514;80;20987;-68
2023/01/04 08:51:22;;;;;;;16.30;11.87;;;;;;;5.96;93.08;96764.74;1795497;80;21025;-68
2023/01/04 08:53:48;;;;;;;14.27;10.27;;;;;;;6.02;93.86;96763.53;1795476;80;21026;-68
2023/01/04 08:56:15;;;;;;;15.07;10.90;;;;;;;6.12;94.33;96761.95;1795344;80;21114;-68
2023/01/04 08:58:42;;;;;;;17.13;11.93;;;;;;;6.19;94.07;96761.22;1795398;80;20983;-68
2023/01/04 09:01:10;;;;;;;14.60;10.57;;;;;;;6.24;93.70;96754.31;1795094;80;21077;-68
2023/01/04 09:03:37;;;;;;;13.90;10.00;;;;;;;6.26;93.20;96754.79;1795519;80;21034;-68
2023/01/04 09:06:11;;;;;;;14.30;9.90;;;;;;;6.36;93.76;96748.41;1795067;80;21090;-68
2023/01/04 09:08:38;;;;;;;;;;;;;;;6.48;94.01;96753.41;1798230;80;20975;-68
2023/01/04 09:11:07;;;;;;;12.50;8.90;;;;;;;6.61;93.89;96745.73;1764360;81;20126;-68
2023/01/04 09:13:35;;;;;;;12.50;9.30;;;;;;;6.73;93.99;96732.81;1795363;80;20990;-69
2023/01/04 09:16:06;;;;;;;10.93;8.40;;;;;;;6.82;92.81;96724.18;1795092;80;21082;-68
2023/01/04 09:18:34;;;;;;;13.50;9.03;;;;;;;6.88;92.58;96719.91;1795304;80;21492;-68
2023/01/04 09:21:14;;;;;;;12.70;9.08;;;;;;;6.93;91.62;96717.35;1795419;80;21483;-68
2023/01/04 09:23:42;;;;;;;12.40;8.77;;;;;;;7.00;92.29;96720.48;1794779;80;21014;-68
2023/01/04 09:26:21;;;;;;;12.60;8.40;;;;;;;7.08;91.58;96717.95;1795105;80;21079;-68
2023/01/04 09:28:54;;;;;;;10.93;8.70;;;;;;;7.14;91.35;96712.81;1795536;80;21488;-68
2023/01/04 09:31:25;;;;;;;16.50;11.28;;;;;;;7.22;91.27;96714.22;1795418;80;20999;-68
2023/01/04 09:33:52;;;;;;;16.77;11.57;;;;;;;7.23;90.47;96712.03;1795356;80;21472;-68
2023/01/04 09:36:19;;;;;;;13.45;10.75;;;;;;;7.26;90.65;96706.41;1795708;80;20994;-68
2023/01/04 09:38:46;;;;;;;11.75;8.48;;;;;;;7.20;89.86;96702.38;1795528;80;21014;-68
2023/01/04 09:41:29;;;;;;;15.53;10.60;;;;;;;7.22;89.94;96700.66;1795428;80;21033;-68
2023/01/04 09:44:03;;;;;;;15.55;12.03;;;;;;;7.26;89.63;96697.22;1795830;80;21042;-68
2023/01/04 09:47:05;;;;;;;17.75;12.70;;;;;;;7.35;89.24;96696.42;1794792;80;21576;-68
2023/01/04 09:49:46;;;;;;;36.50;23.77;;;;;;;7.41;89.32;96696.92;1795514;80;21515;-68
2023/01/04 09:52:33;;;;;;;304.38;172.55;;;;;;;7.46;89.34;96685.63;1795232;80;21067;-68
2023/01/04 09:55:03;;;;;;;26.90;17.20;;;;;;;7.58;89.65;96687.08;1795380;80;21515;-68
2023/01/04 09:57:36;;;;;;;16.05;14.07;;;;;;;7.76;87.32;96677.19;1795442;80;21014;-68
2023/01/04 10:00:09;;;;;;;13.53;10.20;;;;;;;7.76;87.75;96669.30;1795028;80;21003;-68
2023/01/04 10:02:46;;;;;;;13.27;11.70;;;;;;;7.74;87.27;96668.41;1774682;80;30966;-68
2023/01/04 10:05:25;;;;;;;13.38;9.85;;;;;;;7.77;86.46;96658.36;1793923;80;22243;-68
2023/01/04 10:07:52;;;;;;;14.15;10.75;;;;;;;7.57;86.09;96667.35;1787052;80;21106;-68
2023/01/04 10:10:30;;;;;;;13.13;9.20;;;;;;;7.39;86.90;96665.85;1786793;80;21089;-68
2023/01/04 10:13:11;;;;;;;16.20;8.88;;;;;;;7.18;86.12;96668.66;1784692;80;21027;-68
2023/01/04 10:15:52;;;;;;;14.18;9.68;;;;;;;6.89;86.16;96664.38;1785325;80;21570;-68
2023/01/04 10:18:50;;;;;;;12.78;8.53;;;;;;;6.64;86.81;96660.11;1787196;80;21106;-68
2023/01/04 10:21:31;;;;;;;11.63;8.15;;;;;;;6.63;88.10;96654.86;1787299;80;20996;-68
2023/01/04 10:24:22;;;;;;;13.13;9.75;;;;;;;6.74;89.00;96653.25;1787122;80;21098;-68
2023/01/04 10:26:51;;;;;;;14.70;7.83;;;;;;;6.86;89.31;96652.54;1786782;80;21019;-68
2023/01/04 10:29:35;;;;;;;14.28;8.90;;;;;;;6.78;87.83;96656.38;1786721;80;21019;-68
2023/01/04 10:32:22;;;;;;;10.30;7.55;;;;;;;6.64;87.87;96651.37;1787266;80;21000;-68
2023/01/04 10:34:49;;;;;;;11.28;7.33;;;;;;;6.59;88.39;96657.86;1787410;80;21058;-68
2023/01/04 10:37:23;;;;;;;11.10;8.23;;;;;;;6.62;89.40;96653.95;1787082;80;21033;-68
2023/01/04 10:39:54;;;;;;;11.88;8.65;;;;;;;6.77;89.82;96652.41;1785739;80;21023;-68
2023/01/04 10:42:41;;;;;;;10.95;7.83;;;;;;;7.01;90.25;96650.11;1787193;80;21505;-68
2023/01/04 10:45:26;;;;;;;10.50;7.37;;;;;;;7.37;90.49;96644.38;1786344;80;21102;-68
2023/01/04 10:48:24;;;;;;;93.92;45.78;;;;;;;7.63;89.21;96636.32;1786147;80;21141;-68
2023/01/04 10:50:57;;;;;;;15.65;10.55;;;;;;;7.83;88.93;96633.88;1786922;80;21011;-68
2023/01/04 10:53:55;;;;;;;15.55;12.58;;;;;;;8.22;87.42;96626.76;1787065;80;21078;-68
2023/01/04 10:56:48;;;;;;;8.20;6.28;;;;;;;8.40;87.39;96628.22;1787279;80;21007;-68
2023/01/04 10:59:22;;;;;;;11.45;8.78;;;;;;;8.59;87.35;96625.69;1743769;80;21046;-68
2023/01/04 11:01:55;;;;;;;10.72;7.55;;;;;;;8.78;83.75;96629.31;1786794;80;21524;-68
2023/01/04 11:04:51;;;;;;;7.83;6.03;;;;;;;8.98;83.44;96630.28;1787499;80;20967;-68
2023/01/04 11:07:39;;;;;;;10.98;7.80;;;;;;;9.35;80.84;96624.25;1748910;80;21053;-68
2023/01/04 11:10:28;;;;;;;10.88;7.10;;;;;;;9.49;77.86;96622.09;1787106;80;20983;-68
2023/01/04 11:12:54;;;;;;;12.03;6.90;;;;;;;9.76;78.94;96620.39;1709208;80;20991;-68
2023/01/04 11:15:21;;;;;;;6.12;4.92;;;;;;;9.79;77.30;96630.93;1780021;80;20979;-68
2023/01/04 11:17:49;;;;;;;8.93;7.17;;;;;;;9.68;74.68;96623.47;1786857;80;21102;-68
2023/01/04 11:20:18;;;;;;;8.73;7.30;;;;;;;9.97;76.19;96615.11;1787273;80;21014;-68
2023/01/04 11:23:02;;;;;;;7.20;6.12;;;;;;;10.31;75.98;96616.92;1787231;80;21042;-68
2023/01/04 11:25:34;;;;;;;7.83;5.85;;;;;;;10.53;76.18;96613.78;1770666;80;21007;-68
2023/01/04 11:28:26;;;;;;;6.17;4.92;;;;;;;10.55;74.07;96608.06;1786920;80;21130;-68
2023/01/04 11:31:04;;;;;;;7.22;5.50;;;;;;;10.45;68.29;96605.01;1787010;80;20983;-68
2023/01/04 11:33:54;;;;;;;8.83;6.58;;;;;;;10.38;68.61;96612.95;1786570;80;21050;-68
2023/01/04 11:36:37;;;;;;;9.95;7.95;;;;;;;10.55;66.05;96608.94;1787300;80;21003;-68
2023/01/04 11:39:23;;;;;;;10.93;8.15;;;;;;;11.05;64.19;96610.53;1787410;80;21046;-68
2023/01/04 11:42:07;;;;;;;11.08;8.70;;;;;;;11.33;62.94;96602.93;1787259;80;21437;-68
2023/01/04 11:44:32;;;;;;;10.93;9.23;;;;;;;11.46;62.48;96602.88;1785301;80;21051;-68
2023/01/04 11:47:18;;;;;;;10.15;8.03;;;;;;;11.36;64.63;96601.59;1786980;80;21019;-68
2023/01/04 11:49:45;;;;;;;9.98;7.15;;;;;;;11.06;63.91;96599.52;1787306;80;20948;-68
2023/01/04 11:52:35;;;;;;;7.22;6.22;;;;;;;11.06;63.91;96599.52;1787409;80;20985;-68
2023/01/04 11:55:29;;;;;;;8.65;5.80;;;;;;;10.91;63.06;96603.55;1787135;80;21014;-68
2023/01/04 11:58:18;;;;;;;10.15;7.15;;;;;;;10.56;61.24;96600.16;1787251;80;20979;-68
2023/01/04 12:00:54;;;;;;;10.60;8.20;;;;;;;10.29;64.34;96597.57;1787146;80;21011;-68
2023/01/04 12:03:36;;;;;;;8.53;7.35;;;;;;;10.13;65.83;96602.83;1786959;80;20980;-68
2023/01/04 12:06:17;;;;;;;10.65;8.23;;;;;;;10.11;65.79;96597.12;1787110;80;20987;-68
2023/01/04 12:08:44;;;;;;;11.80;8.08;;;;;;;10.19;66.15;96600.17;1786886;80;21063;-68
2023/01/04 12:11:28;;;;;;;8.70;6.92;;;;;;;10.25;66.83;96606.32;1787159;80;21528;-68
2023/01/04 12:13:57;;;;;;;12.90;8.70;;;;;;;10.25;65.79;96608.95;1786171;80;21007;-68
2023/01/04 12:16:42;;;;;;;11.60;9.43;;;;;;;10.73;66.59;96598.77;1787293;80;20964;-68
2023/01/04 12:19:15;;;;;;;10.95;9.23;;;;;;;11.52;64.97;96587.86;1786598;80;21573;-68
2023/01/04 12:21:50;;;;;;;13.83;11.35;;;;;;;11.89;61.66;96592.03;1787487;80;21006;-68
2023/01/04 12:24:24;;;;;;;15.43;12.35;;;;;;;11.65;62.56;96588.20;1787336;80;20983;-68
2023/01/04 12:26:51;;;;;;;14.53;11.55;;;;;;;11.65;62.84;96586.44;1787181;80;21027;-68
2023/01/04 12:29:32;;;;;;;17.02;12.30;;;;;;;11.83;61.96;96585.42;1787097;80;21042;-68
2023/01/04 12:32:14;;;;;;;14.73;12.15;;;;;;;11.58;62.38;96586.03;1786761;80;21027;-68
2023/01/04 12:34:44;;;;;;;17.37;13.15;;;;;;;10.86;62.93;96590.81;1787305;80;20987;-68
2023/01/04 12:37:44;;;;;;;14.80;12.13;;;;;;;10.36;64.35;96589.64;1787030;80;20978;-68
2023/01/04 12:40:47;;;;;;;13.48;10.60;;;;;;;10.05;65.67;96590.51;1786852;80;21011;-68
2023/01/04 12:43:24;;;;;;;14.85;11.85;;;;;;;9.81;66.87;96592.73;1716533;83;21476;-68
2023/01/04 12:49:02;;;;;;;16.60;11.68;;;;;;;9.62;67.86;96605.00;1779743;80;20982;-68